Wetterdaten: aktuell Montag, 27.03.2017 06:30
Datum Zeit Temp. A. Feuchte A. Luftdruck Regen Wind Richtung Richtung Taupunkt Windchill Windben
27.03.2017 06:30 5,1 C 80 % 1024,7 hPa 0,0 l/m 0,3 km/h (0 Bft) W-NW 286 1,9 C 5,1 C 4,8 km/h (1 Bft)
27.03.2017 06:18 5,2 C 80 % 1024,6 hPa 0,0 l/m 0,1 km/h (0 Bft) W-NW 286 2,0 C 5,2 C 4,8 km/h (1 Bft)
27.03.2017 06:00 4,9 C 82 % 1024,5 hPa 0,0 l/m 0,8 km/h (0 Bft) W-NW 286 2,1 C 4,9 C 4,8 km/h (1 Bft)
27.03.2017 05:45 4,7 C 83 % 1024,4 hPa 0,0 l/m 0,0 km/h (0 Bft) W 274 2,1 C 4,7 C 3,2 km/h (1 Bft)
27.03.2017 05:30 4,9 C 82 % 1024,5 hPa 0,0 l/m 0,0 km/h (0 Bft) W 273 2,1 C 4,9 C 0,0 km/h (0 Bft)
27.03.2017 05:15 5,3 C 81 % 1024,5 hPa 0,0 l/m 0,1 km/h (0 Bft) W 273 2,3 C 5,3 C 4,8 km/h (1 Bft)
27.03.2017 05:00 5,3 C 82 % 1024,4 hPa 0,0 l/m 0,1 km/h (0 Bft) W 273 2,5 C 5,3 C 4,8 km/h (1 Bft)
27.03.2017 04:45 5,3 C 82 % 1024,4 hPa 0,0 l/m 0,0 km/h (0 Bft) W-SW 256 2,5 C 5,3 C 0,0 km/h (0 Bft)
27.03.2017 04:30 5,3 C 83 % 1024,5 hPa 0,0 l/m 0,0 km/h (0 Bft) W-SW 256 2,7 C 5,3 C 0,0 km/h (0 Bft)
27.03.2017 04:18 5,3 C 83 % 1024,7 hPa 0,0 l/m 0,0 km/h (0 Bft) W-SW 256 2,7 C 5,3 C 0,0 km/h (0 Bft)
27.03.2017 04:00 5,4 C 84 % 1024,8 hPa 0,0 l/m 0,0 km/h (0 Bft) W-SW 256 2,9 C 5,4 C 1,6 km/h (1 Bft)
27.03.2017 03:45 5,3 C 85 % 1025,0 hPa 0,0 l/m 0,0 km/h (0 Bft) W-SW 256 3,0 C 5,3 C 0,0 km/h (0 Bft)
27.03.2017 03:30 5,1 C 87 % 1024,9 hPa 0,0 l/m 0,0 km/h (0 Bft) W-SW 256 3,1 C 5,1 C 1,6 km/h (1 Bft)
27.03.2017 03:15 5,1 C 87 % 1024,9 hPa 0,0 l/m 0,0 km/h (0 Bft) W-SW 256 3,1 C 5,1 C 0,0 km/h (0 Bft)
27.03.2017 03:00 5,2 C 86 % 1024,7 hPa 0,0 l/m 0,0 km/h (0 Bft) W-SW 256 3,1 C 5,2 C 0,0 km/h (0 Bft)
27.03.2017 02:48 5,3 C 86 % 1024,7 hPa 0,0 l/m 0,0 km/h (0 Bft) W-SW 256 3,2 C 5,3 C 3,2 km/h (1 Bft)
27.03.2017 02:30 5,6 C 86 % 1024,9 hPa 0,0 l/m 0,0 km/h (0 Bft) W-SW 256 3,4 C 5,6 C 0,0 km/h (0 Bft)
27.03.2017 02:17 5,8 C 86 % 1025,0 hPa 0,0 l/m 0,2 km/h (0 Bft) W-SW 256 3,6 C 5,8 C 4,8 km/h (1 Bft)
27.03.2017 02:00 5,9 C 86 % 1025,2 hPa 0,0 l/m 0,3 km/h (0 Bft) W-SW 244 3,7 C 5,9 C 4,8 km/h (1 Bft)
27.03.2017 01:46 5,8 C 86 % 1025,1 hPa 0,0 l/m 0,2 km/h (0 Bft) W-SW 242 3,6 C 5,8 C 4,8 km/h (1 Bft)
27.03.2017 01:30 6,1 C 86 % 1025,1 hPa 0,0 l/m 0,0 km/h (0 Bft) W-SW 244 3,9 C 6,1 C 0,0 km/h (0 Bft)
27.03.2017 01:15 6,2 C 86 % 1025,1 hPa 0,0 l/m 0,0 km/h (0 Bft) W-SW 244 4,0 C 6,2 C 0,0 km/h (0 Bft)
27.03.2017 01:00 6,2 C 85 % 1025,2 hPa 0,0 l/m 0,0 km/h (0 Bft) W-SW 244 3,9 C 6,2 C 0,0 km/h (0 Bft)
27.03.2017 00:45 6,4 C 84 % 1025,2 hPa 0,0 l/m 0,0 km/h (0 Bft) W-SW 244 3,9 C 6,4 C 1,6 km/h (1 Bft)
27.03.2017 00:30 6,6 C 84 % 1025,2 hPa 0,0 l/m 0,0 km/h (0 Bft) W-SW 244 4,1 C 6,6 C 1,6 km/h (1 Bft)
27.03.2017 00:19 6,8 C 83 % 1025,2 hPa 0,0 l/m 0,0 km/h (0 Bft) W-SW 244 4,1 C 6,8 C 3,2 km/h (1 Bft)
27.03.2017 00:00 7,1 C 83 % 1025,2 hPa 0,0 l/m 0,1 km/h (0 Bft) W-SW 244 4,4 C 7,1 C 4,8 km/h (1 Bft)
26.03.2017 23:46 7,2 C 82 % 1025,2 hPa 0,0 l/m 0,0 km/h (0 Bft) W-SW 244 4,3 C 7,2 C 0,0 km/h (0 Bft)
26.03.2017 23:30 7,5 C 82 % 1025,2 hPa 0,0 l/m 0,0 km/h (0 Bft) W-SW 244 4,6 C 7,5 C 1,6 km/h (1 Bft)
26.03.2017 23:15 7,6 C 82 % 1025,2 hPa 0,0 l/m 0,0 km/h (0 Bft) W-SW 244 4,7 C 7,6 C 1,6 km/h (1 Bft)
26.03.2017 23:00 7,7 C 82 % 1025,3 hPa 0,0 l/m 0,4 km/h (0 Bft) W-SW 244 4,8 C 7,7 C 6,4 km/h (2 Bft)
26.03.2017 22:45 7,8 C 81 % 1025,3 hPa 0,0 l/m 0,5 km/h (0 Bft) W-SW 237 4,7 C 7,8 C 4,8 km/h (1 Bft)
26.03.2017 22:30 8,1 C 81 % 1025,2 hPa 0,0 l/m 1,1 km/h (1 Bft) SW 230 5,0 C 8,1 C 6,4 km/h (2 Bft)
26.03.2017 22:17 8,2 C 80 % 1025,2 hPa 0,0 l/m 0,3 km/h (0 Bft) SW 230 5,0 C 8,2 C 4,8 km/h (1 Bft)
26.03.2017 22:00 8,5 C 79 % 1025,2 hPa 0,0 l/m 0,7 km/h (0 Bft) SW 234 5,1 C 8,5 C 6,4 km/h (2 Bft)
26.03.2017 21:45 8,8 C 78 % 1025,2 hPa 0,0 l/m 0,4 km/h (0 Bft) SW 230 5,2 C 8,8 C 8,0 km/h (2 Bft)
26.03.2017 21:30 9,0 C 77 % 1025,0 hPa 0,0 l/m 0,1 km/h (0 Bft) W-SW 238 5,2 C 9,0 C 3,2 km/h (1 Bft)
26.03.2017 21:22 9,2 C 77 % 1025,0 hPa 0,0 l/m 1,3 km/h (1 Bft) W-SW 239 5,4 C 9,2 C 8,0 km/h (2 Bft)
26.03.2017 21:00 9,4 C 75 % 1024,8 hPa 0,0 l/m 1,7 km/h (1 Bft) SW 233 5,2 C 9,4 C 8,0 km/h (2 Bft)
26.03.2017 20:51 9,6 C 75 % 1024,8 hPa 0,0 l/m 0,9 km/h (0 Bft) SW 230 5,4 C 9,6 C 6,4 km/h (2 Bft)
26.03.2017 20:30 10,1 C 72 % 1024,7 hPa 0,0 l/m 0,1 km/h (0 Bft) SW 230 5,3 C 10,1 C 4,8 km/h (1 Bft)
26.03.2017 20:18 10,3 C 71 % 1024,6 hPa 0,0 l/m 1,4 km/h (1 Bft) SW 230 5,3 C 10,3 C 8,0 km/h (2 Bft)
26.03.2017 20:00 10,7 C 70 % 1024,6 hPa 0,0 l/m 1,8 km/h (1 Bft) SW 231 5,5 C 10,7 C 12,9 km/h (3 Bft)
26.03.2017 19:45 11,0 C 69 % 1024,5 hPa 0,0 l/m 3,2 km/h (1 Bft) W-SW 237 5,5 C 11,0 C 9,7 km/h (2 Bft)
26.03.2017 19:30 11,3 C 68 % 1024,3 hPa 0,0 l/m 3,2 km/h (1 Bft) W-SW 241 5,6 C 11,3 C 12,9 km/h (3 Bft)
26.03.2017 19:15 11,7 C 67 % 1024,4 hPa 0,0 l/m 4,0 km/h (1 Bft) W-SW 242 5,8 C 11,7 C 16,1 km/h (3 Bft)
26.03.2017 19:00 12,0 C 66 % 1024,3 hPa 0,0 l/m 4,7 km/h (1 Bft) W-SW 250 5,8 C 12,0 C 16,1 km/h (3 Bft)
26.03.2017 18:45 12,3 C 63 % 1024,3 hPa 0,0 l/m 6,1 km/h (2 Bft) SW 218 5,5 C 12,3 C 16,1 km/h (3 Bft)
26.03.2017 18:30 12,6 C 61 % 1024,2 hPa 0,0 l/m 5,9 km/h (2 Bft) W-SW 238 5,3 C 12,6 C 17,7 km/h (3 Bft)
26.03.2017 18:18 12,7 C 59 % 1024,2 hPa 0,0 l/m 6,3 km/h (2 Bft) SW 235 4,9 C 12,7 C 19,3 km/h (3 Bft)
26.03.2017 18:00 13,0 C 56 % 1024,2 hPa 0,0 l/m 6,3 km/h (2 Bft) SW 220 4,4 C 13,0 C 17,7 km/h (3 Bft)
26.03.2017 17:45 13,2 C 55 % 1024,2 hPa 0,0 l/m 5,4 km/h (1 Bft) W-SW 237 4,4 C 13,2 C 16,1 km/h (3 Bft)
26.03.2017 17:30 13,3 C 58 % 1024,2 hPa 0,0 l/m 5,6 km/h (1 Bft) W-SW 240 5,2 C 13,3 C 20,9 km/h (4 Bft)
26.03.2017 17:15 13,4 C 56 % 1024,2 hPa 0,0 l/m 6,1 km/h (2 Bft) SW 232 4,8 C 13,4 C 16,1 km/h (3 Bft)
26.03.2017 17:01 13,6 C 51 % 1024,2 hPa 0,0 l/m 4,6 km/h (1 Bft) SW 235 3,7 C 13,6 C 16,1 km/h (3 Bft)
26.03.2017 16:45 13,4 C 50 % 1024,3 hPa 0,0 l/m 6,9 km/h (2 Bft) W-SW 241 3,2 C 13,1 C 19,3 km/h (3 Bft)
26.03.2017 16:30 13,8 C 50 % 1024,4 hPa 0,0 l/m 4,0 km/h (1 Bft) W-SW 252 3,6 C 13,8 C 17,7 km/h (3 Bft)
26.03.2017 16:16 13,8 C 53 % 1024,4 hPa 0,0 l/m 5,3 km/h (1 Bft) SW 230 4,4 C 13,8 C 16,1 km/h (3 Bft)
26.03.2017 16:00 13,8 C 54 % 1024,6 hPa 0,0 l/m 7,3 km/h (2 Bft) W-SW 245 4,7 C 13,3 C 20,9 km/h (4 Bft)
26.03.2017 15:45 14,1 C 56 % 1024,7 hPa 0,0 l/m 5,5 km/h (1 Bft) W-SW 241 5,5 C 14,1 C 17,7 km/h (3 Bft)
26.03.2017 15:30 14,3 C 53 % 1024,9 hPa 0,0 l/m 4,7 km/h (1 Bft) SW 215 4,9 C 14,3 C 16,1 km/h (3 Bft)
26.03.2017 15:15 14,2 C 53 % 1024,9 hPa 0,0 l/m 3,8 km/h (1 Bft) SW 222 4,8 C 14,2 C 14,5 km/h (3 Bft)
26.03.2017 15:00 14,2 C 52 % 1024,9 hPa 0,0 l/m 5,6 km/h (1 Bft) W-SW 258 4,5 C 14,2 C 17,7 km/h (3 Bft)
26.03.2017 14:45 14,2 C 52 % 1025,0 hPa 0,0 l/m 5,2 km/h (1 Bft) W-SW 239 4,5 C 14,2 C 16,1 km/h (3 Bft)
26.03.2017 14:30 13,9 C 53 % 1025,2 hPa 0,0 l/m 4,1 km/h (1 Bft) SW 223 4,5 C 13,9 C 16,1 km/h (3 Bft)
26.03.2017 14:15 13,6 C 56 % 1025,3 hPa 0,0 l/m 4,2 km/h (1 Bft) W-SW 244 5,0 C 13,6 C 17,7 km/h (3 Bft)
26.03.2017 14:00 13,2 C 57 % 1025,4 hPa 0,0 l/m 5,1 km/h (1 Bft) SW 215 4,9 C 13,2 C 14,5 km/h (3 Bft)
26.03.2017 13:45 12,9 C 58 % 1025,4 hPa 0,0 l/m 4,4 km/h (1 Bft) W 263 4,8 C 12,9 C 14,5 km/h (3 Bft)
26.03.2017 13:30 13,1 C 61 % 1025,5 hPa 0,0 l/m 6,4 km/h (2 Bft) S-SW 208 5,8 C 13,1 C 17,7 km/h (3 Bft)
26.03.2017 13:15 12,8 C 64 % 1025,6 hPa 0,0 l/m 2,9 km/h (1 Bft) S-SW 211 6,2 C 12,8 C 11,3 km/h (2 Bft)
26.03.2017 13:00 12,2 C 67 % 1025,7 hPa 0,0 l/m 4,6 km/h (1 Bft) S-SW 209 6,3 C 12,2 C 17,7 km/h (3 Bft)
26.03.2017 12:45 11,7 C 68 % 1025,8 hPa 0,0 l/m 2,9 km/h (1 Bft) W-SW 243 6,0 C 11,7 C 12,9 km/h (3 Bft)
26.03.2017 12:30 10,8 C 70 % 1025,9 hPa 0,0 l/m 4,3 km/h (1 Bft) W 277 5,6 C 10,8 C 14,5 km/h (3 Bft)
26.03.2017 12:17 10,7 C 72 % 1026,0 hPa 0,0 l/m 3,2 km/h (1 Bft) SW 232 5,9 C 10,7 C 12,9 km/h (3 Bft)
26.03.2017 12:00 10,3 C 75 % 1026,1 hPa 0,0 l/m 1,2 km/h (1 Bft) SW 222 6,1 C 10,3 C 9,7 km/h (2 Bft)
26.03.2017 11:45 9,4 C 77 % 1026,2 hPa 0,0 l/m 3,8 km/h (1 Bft) W 265 5,6 C 9,4 C 14,5 km/h (3 Bft)
26.03.2017 11:30 9,2 C 80 % 1026,2 hPa 0,0 l/m 4,4 km/h (1 Bft) W 263 5,9 C 9,2 C 14,5 km/h (3 Bft)
26.03.2017 11:15 8,7 C 82 % 1026,2 hPa 0,0 l/m 3,1 km/h (1 Bft) SW 227 5,8 C 8,7 C 8,0 km/h (2 Bft)
26.03.2017 11:00 8,2 C 82 % 1026,2 hPa 0,0 l/m 2,3 km/h (1 Bft) W-SW 248 5,3 C 8,2 C 8,0 km/h (2 Bft)
26.03.2017 10:45 7,8 C 83 % 1026,2 hPa 0,0 l/m 3,9 km/h (1 Bft) SW 232 5,1 C 7,8 C 12,9 km/h (3 Bft)
26.03.2017 10:30 7,3 C 85 % 1026,3 hPa 0,0 l/m 1,7 km/h (1 Bft) SW 233 4,9 C 7,3 C 8,0 km/h (2 Bft)
26.03.2017 10:17 7,1 C 86 % 1026,3 hPa 0,0 l/m 1,6 km/h (1 Bft) W-SW 250 4,9 C 7,1 C 8,0 km/h (2 Bft)
26.03.2017 10:00 6,6 C 88 % 1026,3 hPa 0,0 l/m 1,9 km/h (1 Bft) W 270 4,8 C 6,6 C 9,7 km/h (2 Bft)
26.03.2017 09:45 6,3 C 88 % 1026,2 hPa 0,0 l/m 1,7 km/h (1 Bft) W 262 4,5 C 6,3 C 8,0 km/h (2 Bft)
26.03.2017 09:30 6,2 C 90 % 1025,9 hPa 0,0 l/m 0,9 km/h (0 Bft) SW 232 4,7 C 6,2 C 6,4 km/h (2 Bft)
26.03.2017 09:15 6,1 C 90 % 1026,0 hPa 0,0 l/m 1,0 km/h (0 Bft) W-SW 244 4,6 C 6,1 C 8,0 km/h (2 Bft)
26.03.2017 09:00 5,9 C 90 % 1026,0 hPa 0,0 l/m 0,9 km/h (0 Bft) W-SW 252 4,4 C 5,9 C 8,0 km/h (2 Bft)
26.03.2017 08:45 5,8 C 90 % 1025,9 hPa 0,0 l/m 0,8 km/h (0 Bft) W-SW 242 4,3 C 5,8 C 6,4 km/h (2 Bft)
26.03.2017 08:30 5,8 C 91 % 1025,9 hPa 0,0 l/m 0,8 km/h (0 Bft) W 260 4,4 C 5,8 C 8,0 km/h (2 Bft)
26.03.2017 08:19 5,8 C 91 % 1025,7 hPa 0,0 l/m 2,1 km/h (1 Bft) W 273 4,4 C 5,8 C 12,9 km/h (3 Bft)
26.03.2017 08:00 5,7 C 91 % 1025,7 hPa 0,0 l/m 3,9 km/h (1 Bft) W-SW 242 4,3 C 5,7 C 14,5 km/h (3 Bft)
26.03.2017 07:45 5,7 C 90 % 1025,6 hPa 0,0 l/m 3,2 km/h (1 Bft) W-SW 237 4,2 C 5,7 C 12,9 km/h (3 Bft)
26.03.2017 07:30 5,7 C 90 % 1025,3 hPa 0,0 l/m 1,9 km/h (1 Bft) W 268 4,2 C 5,7 C 12,9 km/h (3 Bft)
26.03.2017 07:15 5,6 C 89 % 1025,3 hPa 0,0 l/m 1,4 km/h (1 Bft) W-SW 242 3,9 C 5,6 C 8,0 km/h (2 Bft)
26.03.2017 07:00 5,6 C 89 % 1025,3 hPa 0,0 l/m 2,9 km/h (1 Bft) W-SW 249 3,9 C 5,6 C 14,5 km/h (3 Bft)
_ Min-Zeit 05:45 16:30 17:01 - 23:15 - - 06:30 05:45 23:46
Minimum _ 4,7 C 50 % 1024,2 hPa - 0,0 km/h (0 Bft) - - 1,9 C 4,7 C 0,0 km/h (0 Bft)
_ Max-Zeit 15:00 08:00 10:00 07:00 16:00 - - 13:00 15:30 16:00
Maximum _ 14,5 C 91 % 1026,3 hPa 0,0 l/m 7,3 km/h
W-SW (2 Bft)
- - 6,3 C 14,3 C 20,9 km/h
W-SW (4 Bft)
Durchschnitt _ 8,6 C 76 % 1025,1 hPa #0,0 l/m 2,3 km/h (1 Bft) W-SW - 4,4 C 8,6 C 9,5 km/h (2 Bft)